KPGA

Page Municipal Airport

Page, Arizona, USA
METAR KPGA 202353Z AUTO 00000KT 10SM FEW065 FEW100 36/07 A2995 RMK AO2 RAB30E43 SLP066 P0000 60000 T03560067 10378 20328 56018 TSNO
Observed Flight Rules
Aug-20 @ 23:53 UTC (16 minutes ago) Visual Flight Rules
Visibility Clouds
10 miles
  • Few at 6,500' AGL
  • Few at 10,000' AGL
Temperatures Readings Precipitation
Current 36°C / 97°F
Dewpoint 7°C / 45°F
Humidity 17%
Altimeter 29.95" Hg
Pressure 1006.6 hPa
Elevation 1307
Current Rain 0.005
METAR KPGA 202353Z AUTO 00000KT 10SM FEW065 FEW100 36/07 A2995 RMK AO2 RAB30E43 SLP066 P0000 60000 T03560067 10378 20328 56018 TSNO
Observed Flight Rules
Aug-20 @ 23:53 UTC
(16 minutes ago)
VFR
Clouds
  • Few at 6,500' AGL
  • Few at 10,000' AGL
Temperature Dewpoint
36°C / 97°F 7°C / 45°F
Humidity Altimeter Pressure
17% 29.95" Hg 1006.6 hPa
Current Rain
0.005